Time;durP1;ratioP1;P1;durP2;ratioP2;P2;SDS_P1;SDS_P2;PMS_P1;PMS_P2;Temp;Humidity;BMP_temperature;BMP_pressure;BME280_temperature;BME280_humidity;BME280_pressure;Samples;Min_cycle;Max_cycle;Signal;HPM_P1;HPM_P2
2021/05/25 00:00:56;;;;;;;2.37;2.22;;;;;;;14.60;77.40;101100.41;458032;113;922678;-71
2021/05/25 00:01:59;;;;;;;2.46;2.16;;;;;;;14.59;77.46;101102.31;457914;113;922645;-69
2021/05/25 00:03:07;;;;;;;2.34;2.11;;;;;;;14.58;77.40;101097.89;458131;113;923897;-69
2021/05/25 00:04:09;;;;;;;2.14;2.03;;;;;;;14.57;77.39;101106.34;457967;113;930137;-67
2021/05/25 00:05:16;;;;;;;2.35;2.15;;;;;;;14.56;77.57;101100.02;460625;113;922941;-68
2021/05/25 00:06:20;;;;;;;2.21;2.02;;;;;;;14.57;77.65;101107.19;458498;113;924087;-69
2021/05/25 00:07:24;;;;;;;1.73;1.63;;;;;;;14.59;77.67;101095.98;461961;113;922945;-71
2021/05/25 00:08:28;;;;;;;1.79;1.69;;;;;;;14.60;77.43;101103.16;461520;113;922867;-70
2021/05/25 00:09:31;;;;;;;1.58;1.48;;;;;;;14.59;77.39;101105.06;461502;113;923005;-70
2021/05/25 00:10:37;;;;;;;1.97;1.84;;;;;;;14.58;77.37;101100.63;460158;113;930296;-69
2021/05/25 00:11:41;;;;;;;1.66;1.56;;;;;;;14.59;77.35;101094.08;461149;113;922520;-71
2021/05/25 00:12:45;;;;;;;1.92;1.82;;;;;;;14.60;77.26;101094.92;460316;113;930593;-70
2021/05/25 00:13:48;;;;;;;1.62;1.47;;;;;;;14.60;77.24;101090.28;460771;113;922599;-69
2021/05/25 00:14:52;;;;;;;1.56;1.47;;;;;;;14.61;77.21;101091.09;460281;113;922642;-69
2021/05/25 00:15:56;;;;;;;1.73;1.63;;;;;;;14.61;77.05;101096.58;463534;113;922869;-68
2021/05/25 00:17:00;;;;;;;2.78;1.84;;;;;;;14.61;77.05;101097.41;463353;113;922529;-70
2021/05/25 00:18:05;;;;;;;1.40;1.33;;;;;;;14.61;76.98;101091.09;463085;113;923932;-68
2021/05/25 00:19:08;;;;;;;1.57;1.47;;;;;;;14.61;76.99;101097.41;462329;113;922799;-71
2021/05/25 00:20:15;;;;;;;1.64;1.54;;;;;;;14.61;76.97;101102.06;464086;113;922605;-69
2021/05/25 00:21:20;;;;;;;1.62;1.49;;;;;;;14.60;76.96;101103.16;463095;113;924112;-70
2021/05/25 00:22:24;;;;;;;1.49;1.40;;;;;;;14.59;76.94;101104.22;463612;113;922891;-68
2021/05/25 00:23:29;;;;;;;1.77;1.29;;;;;;;14.58;76.90;101108.86;463988;113;922884;-69
2021/05/25 00:24:35;;;;;;;1.38;1.28;;;;;;;14.57;76.85;101106.34;454470;116;922534;-69
2021/05/25 00:25:38;;;;;;;1.62;1.35;;;;;;;14.55;76.82;101108.49;455445;113;922646;-70
2021/05/25 00:26:42;;;;;;;1.48;1.33;;;;;;;14.56;76.79;101110.15;463842;113;930349;-71
2021/05/25 00:27:47;;;;;;;1.15;1.14;;;;;;;14.52;76.61;101112.52;463360;113;924381;-68
2021/05/25 00:28:52;;;;;;;1.44;1.31;;;;;;;14.47;76.68;101109.62;463415;113;924045;-71
2021/05/25 00:29:56;;;;;;;1.51;1.41;;;;;;;14.45;76.81;101110.91;463873;113;924103;-69
2021/05/25 00:31:00;;;;;;;1.77;1.51;;;;;;;14.43;76.86;101111.16;461947;113;923351;-70
2021/05/25 00:32:04;;;;;;;1.66;1.56;;;;;;;14.44;76.87;101109.25;462088;113;922554;-69
2021/05/25 00:33:07;;;;;;;1.53;1.43;;;;;;;14.43;76.86;101105.66;464613;113;922959;-68
2021/05/25 00:34:11;;;;;;;1.63;1.18;;;;;;;14.44;76.82;101111.99;463651;113;922538;-71
2021/05/25 00:35:15;;;;;;;1.57;0.99;;;;;;;14.45;76.77;101105.41;463515;113;923256;-70
2021/05/25 00:36:21;;;;;;;1.36;0.99;;;;;;;14.45;76.75;101110.91;461607;113;931905;-71
2021/05/25 00:37:25;;;;;;;1.16;1.04;;;;;;;14.46;76.73;101107.94;463267;113;924156;-70
2021/05/25 00:38:32;;;;;;;1.29;1.19;;;;;;;14.47;76.72;101104.13;463911;113;922841;-69
2021/05/25 00:39:39;;;;;;;1.22;1.12;;;;;;;14.48;76.68;101107.72;454661;115;922990;-69
2021/05/25 00:40:44;;;;;;;2.12;1.26;;;;;;;14.48;76.71;101108.56;455278;114;922479;-72
2021/05/25 00:41:49;;;;;;;1.79;1.22;;;;;;;14.49;76.94;101112.98;463914;113;933352;-71
2021/05/25 00:42:53;;;;;;;1.24;1.22;;;;;;;14.52;77.07;101114.42;461684;113;922857;-71
2021/05/25 00:43:57;;;;;;;1.32;1.22;;;;;;;14.57;77.13;101118.16;461717;113;923151;-71
2021/05/25 00:45:01;;;;;;;2.36;1.07;;;;;;;14.63;77.08;101116.41;462562;113;922954;-71
2021/05/25 00:46:06;;;;;;;1.19;1.09;;;;;;;14.68;76.99;101112.97;464087;113;930252;-70
2021/05/25 00:47:13;;;;;;;1.32;1.21;;;;;;;14.73;76.88;101113.97;449992;116;923043;-69
2021/05/25 00:48:17;;;;;;;1.02;1.02;;;;;;;14.78;76.65;101121.50;451046;114;922714;-70
2021/05/25 00:49:21;;;;;;;0.99;0.99;;;;;;;14.83;76.53;101119.75;462931;113;930084;-71
2021/05/25 00:50:29;;;;;;;1.59;1.39;;;;;;;14.88;76.09;101121.83;463449;113;925503;-69
2021/05/25 00:51:34;;;;;;;2.40;1.44;;;;;;;14.88;75.58;101121.83;463719;113;922594;-71
2021/05/25 00:52:42;;;;;;;1.11;1.09;;;;;;;14.87;75.22;101120.15;462965;113;923063;-71
2021/05/25 00:53:45;;;;;;;1.94;1.16;;;;;;;14.84;75.28;101115.10;461012;113;922903;-70
2021/05/25 00:54:49;;;;;;;1.20;1.10;;;;;;;14.81;75.09;101113.67;461705;113;922613;-68
2021/05/25 00:55:53;;;;;;;1.21;1.17;;;;;;;14.78;74.99;101121.50;461863;113;930131;-71
2021/05/25 00:56:58;;;;;;;1.83;1.19;;;;;;;14.76;75.04;101123.66;463175;113;930177;-69
2021/05/25 00:58:03;;;;;;;1.35;1.20;;;;;;;14.73;75.06;101121.36;462278;113;930661;-72
2021/05/25 00:59:07;;;;;;;1.02;1.01;;;;;;;14.72;75.16;101119.70;461877;113;922503;-73
2021/05/25 01:00:14;;;;;;;1.18;1.15;;;;;;;14.70;75.12;101127.31;462442;113;922935;-71
2021/05/25 01:01:18;;;;;;;1.66;1.28;;;;;;;14.67;75.21;101131.34;462621;113;930211;-71
2021/05/25 01:02:22;;;;;;;1.27;1.10;;;;;;;14.67;75.26;101133.25;463031;113;922928;-70
2021/05/25 01:03:25;;;;;;;1.34;1.24;;;;;;;14.65;75.28;101140.89;462402;113;924498;-70
2021/05/25 01:04:30;;;;;;;1.23;1.11;;;;;;;14.64;75.37;101140.05;464531;113;926748;-72
2021/05/25 01:05:34;;;;;;;2.01;1.19;;;;;;;14.62;75.34;101131.19;462544;113;922803;-71
2021/05/25 01:06:38;;;;;;;1.08;1.04;;;;;;;14.60;75.29;101123.21;463617;113;922679;-69
2021/05/25 01:07:42;;;;;;;1.27;1.19;;;;;;;14.59;75.28;101127.02;462761;113;930112;-70
2021/05/25 01:08:46;;;;;;;1.74;1.49;;;;;;;14.56;75.36;101124.70;464255;113;922797;-71
2021/05/25 01:09:51;;;;;;;1.52;1.27;;;;;;;14.55;75.41;101128.52;463315;113;922615;-71
2021/05/25 01:11:07;;;;;;;1.61;1.18;;;;;;;14.54;75.49;101128.77;462854;113;924107;-70
2021/05/25 01:12:03;;;;;;;1.00;0.95;;;;;;;14.51;75.49;101129.20;460306;113;924064;-71
2021/05/25 01:13:21;;;;;;;1.07;1.01;;;;;;;14.49;75.52;101131.35;464379;113;924549;-70
2021/05/25 01:14:19;;;;;;;1.33;1.23;;;;;;;14.48;75.59;101126.92;461929;113;922656;-70
2021/05/25 01:15:23;;;;;;;1.63;1.33;;;;;;;14.46;75.67;101132.63;462296;113;922486;-71
2021/05/25 01:16:29;;;;;;;1.63;1.34;;;;;;;14.44;75.72;101131.20;462092;113;923964;-70
2021/05/25 01:17:33;;;;;;;1.26;1.12;;;;;;;14.42;75.79;101131.42;462620;113;924032;-70
2021/05/25 01:18:37;;;;;;;1.94;1.62;;;;;;;14.42;75.99;101136.91;463019;113;922857;-70
2021/05/25 01:19:41;;;;;;;2.31;1.21;;;;;;;14.45;76.22;101141.08;460790;113;925650;-71
2021/05/25 01:20:47;;;;;;;1.73;1.29;;;;;;;14.49;76.29;101151.41;463698;113;922817;-70
2021/05/25 01:21:51;;;;;;;1.39;1.28;;;;;;;14.54;76.27;101148.81;464004;113;924704;-71
2021/05/25 01:22:56;;;;;;;6.52;1.51;;;;;;;14.58;76.12;101146.45;463009;113;922950;-72
2021/05/25 01:24:00;;;;;;;2.63;1.21;;;;;;;14.60;75.94;101144.32;461683;113;925924;-72
2021/05/25 01:25:10;;;;;;;1.38;1.18;;;;;;;14.60;75.83;101141.58;461921;113;929267;-69
2021/05/25 01:26:17;;;;;;;1.26;1.22;;;;;;;14.60;75.77;101139.67;463610;113;924383;-70
2021/05/25 01:27:21;;;;;;;2.79;1.20;;;;;;;14.61;75.79;101148.72;462799;113;922882;-71
2021/05/25 01:28:25;;;;;;;1.64;1.41;;;;;;;14.59;75.80;101148.97;462176;113;925423;-70
2021/05/25 01:29:29;;;;;;;1.75;1.41;;;;;;;14.59;75.79;101143.48;463623;113;925534;-71
2021/05/25 01:30:37;;;;;;;1.62;1.49;;;;;;;14.59;75.81;101146.23;462920;113;924038;-72
2021/05/25 01:31:41;;;;;;;2.17;1.60;;;;;;;14.59;75.87;101148.97;462282;113;922704;-71
2021/05/25 01:32:45;;;;;;;1.47;1.37;;;;;;;14.59;75.93;101140.73;463339;113;924071;-70
2021/05/25 01:33:49;;;;;;;1.65;1.53;;;;;;;14.59;75.94;101131.66;463490;113;925974;-70
2021/05/25 01:34:53;;;;;;;2.15;1.54;;;;;;;14.59;75.96;101137.99;464691;113;924067;-70
2021/05/25 01:35:57;;;;;;;1.50;1.36;;;;;;;14.60;76.12;101136.94;463409;113;926209;-70
2021/05/25 01:37:02;;;;;;;2.48;1.56;;;;;;;14.63;76.18;101140.27;460575;113;922512;-71
2021/05/25 01:38:08;;;;;;;1.62;1.52;;;;;;;14.64;76.21;101133.72;462914;113;924965;-71
2021/05/25 01:39:14;;;;;;;1.87;1.44;;;;;;;14.66;76.21;101137.09;462851;113;922600;-71
2021/05/25 01:40:26;;;;;;;1.91;1.74;;;;;;;14.81;76.25;101137.53;472502;110;928802;-70
2021/05/25 01:41:30;;;;;;;1.42;1.28;;;;;;;14.72;76.30;101138.92;460164;114;922571;-71
2021/05/25 01:42:35;;;;;;;2.99;1.38;;;;;;;14.75;76.21;101142.03;451676;115;923594;-70
2021/05/25 01:43:39;;;;;;;2.16;1.34;;;;;;;14.78;76.05;101141.56;451586;113;922559;-69
2021/05/25 01:44:43;;;;;;;1.84;1.69;;;;;;;14.82;75.94;101137.31;451928;114;922933;-71
2021/05/25 01:45:47;;;;;;;2.88;1.59;;;;;;;14.86;75.85;101138.53;452729;113;931830;-71
2021/05/25 01:46:51;;;;;;;2.55;1.49;;;;;;;14.89;75.79;101135.31;451707;114;923396;-71
2021/05/25 01:47:56;;;;;;;2.01;1.75;;;;;;;14.92;75.70;101136.77;450673;113;922560;-70
2021/05/25 01:49:00;;;;;;;4.04;1.96;;;;;;;14.95;75.58;101125.31;451985;113;922480;-70
2021/05/25 01:50:12;;;;;;;3.84;2.30;;;;;;;14.97;75.46;101120.44;452623;115;922639;-71
2021/05/25 01:51:16;;;;;;;2.82;2.27;;;;;;;15.00;75.31;101129.05;450310;116;922737;-70
2021/05/25 01:52:20;;;;;;;3.38;2.83;;;;;;;15.04;75.18;101118.45;450916;114;926640;-70
2021/05/25 01:53:29;;;;;;;3.61;2.63;;;;;;;15.05;75.07;101119.30;450790;115;927193;-70
2021/05/25 01:54:32;;;;;;;3.34;3.04;;;;;;;15.05;74.95;101114.61;451998;113;922980;-71
2021/05/25 01:55:42;;;;;;;4.37;3.08;;;;;;;15.07;74.83;101111.65;451930;113;922426;-70
2021/05/25 01:56:46;;;;;;;4.64;3.76;;;;;;;15.08;74.78;101110.58;450872;114;922876;-71
2021/05/25 01:57:50;;;;;;;3.58;3.29;;;;;;;15.09;74.69;101106.77;450971;114;931856;-71
2021/05/25 01:58:55;;;;;;;4.26;3.74;;;;;;;15.10;74.58;101112.05;452454;114;922701;-70
2021/05/25 01:59:59;;;;;;;4.94;4.48;;;;;;;15.09;74.52;101110.36;442365;118;930708;-70
2021/05/25 02:01:06;;;;;;;5.92;5.32;;;;;;;15.10;74.50;101100.22;444982;116;924098;-70
2021/05/25 02:02:17;;;;;;;5.52;4.98;;;;;;;15.20;74.52;101108.73;474895;110;949020;-72
2021/05/25 02:03:21;;;;;;;5.79;5.22;;;;;;;15.10;74.49;101109.30;466421;111;924014;-72
2021/05/25 02:04:25;;;;;;;6.24;4.92;;;;;;;15.11;74.42;101110.11;465282;112;922531;-70
2021/05/25 02:05:29;;;;;;;5.61;5.21;;;;;;;15.10;74.23;101106.55;466556;111;930561;-71
2021/05/25 02:06:33;;;;;;;5.02;4.64;;;;;;;15.09;74.24;101104.87;466240;111;930735;-70
2021/05/25 02:07:39;;;;;;;4.76;4.43;;;;;;;15.08;74.22;101105.09;465660;111;924280;-70
2021/05/25 02:08:43;;;;;;;5.03;4.65;;;;;;;15.06;74.05;101102.56;466313;112;923957;-70
2021/05/25 02:09:47;;;;;;;5.28;4.84;;;;;;;15.05;73.97;101100.08;466772;112;922674;-70
2021/05/25 02:10:57;;;;;;;5.52;5.04;;;;;;;15.01;74.04;101100.52;466663;112;926561;-71
2021/05/25 02:12:00;;;;;;;5.29;4.84;;;;;;;14.96;74.10;101100.38;466561;112;925251;-69
2021/05/25 02:13:10;;;;;;;7.21;4.74;;;;;;;14.92;74.20;101093.68;467026;111;926777;-71
2021/05/25 02:14:15;;;;;;;4.80;4.40;;;;;;;14.86;74.17;101091.85;466194;111;923330;-71
2021/05/25 02:15:24;;;;;;;4.87;4.54;;;;;;;14.80;74.24;101084.53;452978;115;924590;-70
2021/05/25 02:16:33;;;;;;;5.28;4.82;;;;;;;14.77;74.33;101089.66;450348;114;923085;-69
2021/05/25 02:17:39;;;;;;;5.87;5.33;;;;;;;14.73;74.42;101085.67;454730;114;926246;-71
2021/05/25 02:18:46;;;;;;;9.45;5.37;;;;;;;14.70;74.44;101083.41;458927;112;924016;-70
2021/05/25 02:19:51;;;;;;;5.99;5.30;;;;;;;14.66;74.54;101091.27;466478;111;924006;-69
2021/05/25 02:20:59;;;;;;;5.54;5.03;;;;;;;14.64;74.68;101092.55;465581;112;922558;-70
2021/05/25 02:22:03;;;;;;;5.54;4.96;;;;;;;14.61;74.78;101096.58;465631;112;924099;-71
2021/05/25 02:23:07;;;;;;;5.09;4.66;;;;;;;14.59;74.79;101099.57;466974;112;924082;-71
2021/05/25 02:24:11;;;;;;;5.02;4.62;;;;;;;14.58;74.81;101097.89;466940;111;922146;-70
2021/05/25 02:25:16;;;;;;;5.99;5.07;;;;;;;14.56;74.87;101108.24;466095;112;932922;-73
2021/05/25 02:26:23;;;;;;;5.22;4.82;;;;;;;14.56;75.07;101101.91;465755;112;924087;-70
2021/05/25 02:27:27;;;;;;;5.96;4.91;;;;;;;14.56;75.15;101102.75;466342;111;923094;-69
2021/05/25 02:28:31;;;;;;;6.41;4.91;;;;;;;14.58;75.18;101105.28;467368;111;924039;-71
2021/05/25 02:29:35;;;;;;;5.39;4.90;;;;;;;14.60;75.33;101101.25;465831;112;922513;-72
2021/05/25 02:30:41;;;;;;;5.05;4.62;;;;;;;14.64;75.41;101111.76;466265;112;923825;-70
2021/05/25 02:31:45;;;;;;;5.23;4.83;;;;;;;14.66;75.42;101104.15;466725;111;923023;-69
2021/05/25 02:32:49;;;;;;;4.96;4.42;;;;;;;14.67;75.35;101103.05;467261;112;922774;-70
2021/05/25 02:33:53;;;;;;;5.00;4.61;;;;;;;14.67;75.35;101108.55;465805;112;930560;-71
2021/05/25 02:34:56;;;;;;;5.58;5.14;;;;;;;14.68;75.42;101107.48;466440;112;922730;-70
2021/05/25 02:36:00;;;;;;;7.86;4.60;;;;;;;14.68;75.41;101104.73;466526;111;923118;-71
2021/05/25 02:37:04;;;;;;;5.11;4.69;;;;;;;14.69;75.38;101103.67;466780;111;922375;-72
2021/05/25 02:38:09;;;;;;;4.82;4.42;;;;;;;14.69;75.42;101103.67;466870;111;923006;-72
2021/05/25 02:39:13;;;;;;;4.68;4.29;;;;;;;14.70;75.45;101106.20;466777;112;922509;-71
2021/05/25 02:40:17;;;;;;;5.17;4.12;;;;;;;14.71;75.49;101102.39;466884;112;923119;-70
2021/05/25 02:41:21;;;;;;;4.66;4.26;;;;;;;14.72;75.48;101095.00;466389;111;922881;-69
2021/05/25 02:42:25;;;;;;;4.01;3.69;;;;;;;14.72;75.47;101098.55;467551;111;922767;-72
2021/05/25 02:43:30;;;;;;;4.79;3.96;;;;;;;14.74;75.51;101099.17;467788;112;922971;-72
2021/05/25 02:44:33;;;;;;;4.36;3.62;;;;;;;14.75;75.61;101105.51;467489;112;922792;-71
2021/05/25 02:45:37;;;;;;;3.79;3.46;;;;;;;14.79;75.69;101109.46;465925;111;922811;-69
2021/05/25 02:46:41;;;;;;;3.69;3.39;;;;;;;14.85;75.61;101111.30;466070;111;923629;-71
2021/05/25 02:47:45;;;;;;;5.19;3.44;;;;;;;14.89;75.50;101118.84;465550;112;922374;-72
2021/05/25 02:48:48;;;;;;;3.54;3.25;;;;;;;14.94;75.28;101120.91;465705;111;922632;-71
2021/05/25 02:49:52;;;;;;;4.17;3.85;;;;;;;14.95;75.08;101108.84;466129;112;924040;-73
2021/05/25 02:50:57;;;;;;;3.46;3.16;;;;;;;14.96;74.87;101113.27;465952;112;922574;-71
2021/05/25 02:52:02;;;;;;;3.44;3.14;;;;;;;14.95;74.73;101111.58;466896;111;925417;-72
2021/05/25 02:53:07;;;;;;;3.69;3.38;;;;;;;14.95;74.73;101117.08;465637;112;922461;-71
2021/05/25 02:54:11;;;;;;;3.72;3.45;;;;;;;14.95;74.75;101117.08;465942;111;923793;-71
2021/05/25 02:55:20;;;;;;;3.89;3.52;;;;;;;14.94;74.87;101124.47;465942;112;922493;-69
2021/05/25 02:56:25;;;;;;;3.11;2.85;;;;;;;14.93;74.89;101128.31;466321;112;923104;-74
2021/05/25 02:57:28;;;;;;;4.35;3.05;;;;;;;14.92;74.81;101125.78;465793;111;923152;-72
2021/05/25 02:58:32;;;;;;;4.11;3.81;;;;;;;14.90;74.63;101125.17;466694;111;926201;-75
2021/05/25 02:59:35;;;;;;;3.98;3.63;;;;;;;14.88;74.59;101125.42;466799;112;923260;-73
2021/05/25 03:00:43;;;;;;;3.86;3.47;;;;;;;14.85;74.68;101125.86;466046;112;922771;-75
2021/05/25 03:01:47;;;;;;;4.11;3.48;;;;;;;14.82;74.70;101136.48;464635;112;931966;-74
2021/05/25 03:02:56;;;;;;;4.49;3.59;;;;;;;14.79;74.83;101137.76;465573;111;922598;-71
2021/05/25 03:04:11;;;;;;;4.58;4.18;;;;;;;14.79;74.97;101136.92;466614;112;924108;-71
2021/05/25 03:05:17;;;;;;;5.76;3.92;;;;;;;14.77;75.11;101145.41;465421;112;925970;-75
2021/05/25 03:06:21;;;;;;;5.01;4.42;;;;;;;14.78;75.28;101146.21;465627;112;925791;-73
2021/05/25 03:07:26;;;;;;;9.45;4.65;;;;;;;14.79;75.41;101153.39;466667;111;924063;-74
2021/05/25 03:08:30;;;;;;;4.74;4.34;;;;;;;14.80;75.49;101153.17;465259;112;923943;-75
2021/05/25 03:09:34;;;;;;;7.18;4.44;;;;;;;14.84;75.60;101148.05;465481;112;924045;-71
2021/05/25 03:10:41;;;;;;;5.00;4.51;;;;;;;14.86;75.62;101146.77;466636;112;930497;-71
2021/05/25 03:11:45;;;;;;;4.33;3.84;;;;;;;14.91;75.62;101146.91;466297;111;922450;-71
2021/05/25 03:12:49;;;;;;;5.57;4.46;;;;;;;14.95;75.57;101134.39;465358;111;924021;-71
2021/05/25 03:13:53;;;;;;;5.25;4.50;;;;;;;14.98;75.59;101139.44;466920;112;930482;-71
2021/05/25 03:14:57;;;;;;;6.62;4.39;;;;;;;15.03;75.70;101138.75;466067;112;922486;-71
2021/05/25 03:16:00;;;;;;;4.03;3.72;;;;;;;15.09;75.76;101132.33;466360;111;930546;-74
2021/05/25 03:17:04;;;;;;;6.33;4.17;;;;;;;15.16;75.72;101135.00;465492;111;930386;-71
2021/05/25 03:18:09;;;;;;;4.11;3.70;;;;;;;15.23;75.60;101124.73;465818;112;930481;-71
2021/05/25 03:19:12;;;;;;;7.90;4.27;;;;;;;15.28;75.51;101136.70;465483;111;930457;-70
2021/05/25 03:20:17;;;;;;;4.40;3.99;;;;;;;15.34;75.39;101133.03;466396;111;930430;-72
2021/05/25 03:21:20;;;;;;;4.72;4.13;;;;;;;15.39;75.32;101135.08;466519;112;922549;-71
2021/05/25 03:22:24;;;;;;;4.71;4.31;;;;;;;15.45;75.14;101142.39;466031;111;923260;-69
2021/05/25 03:23:27;;;;;;;4.34;3.41;;;;;;;15.47;74.99;101140.27;467133;112;922675;-70
2021/05/25 03:24:32;;;;;;;5.22;4.25;;;;;;;15.51;74.89;101140.62;466033;112;922620;-70
2021/05/25 03:25:36;;;;;;;5.06;4.19;;;;;;;15.53;74.83;101146.77;466142;112;922573;-72
2021/05/25 03:26:40;;;;;;;4.61;3.95;;;;;;;15.54;74.92;101149.29;466471;112;923163;-70
2021/05/25 03:27:44;;;;;;;4.47;3.89;;;;;;;15.57;75.02;101151.56;466034;112;922930;-71
2021/05/25 03:28:49;;;;;;;5.23;4.02;;;;;;;15.58;75.00;101155.98;466911;111;923189;-72
2021/05/25 03:29:52;;;;;;;3.96;3.53;;;;;;;15.59;74.97;101149.42;466200;111;923335;-70
2021/05/25 03:30:56;;;;;;;6.15;3.47;;;;;;;15.62;74.87;101156.34;457157;114;923393;-69
2021/05/25 03:32:00;;;;;;;3.78;3.33;;;;;;;15.63;74.77;101155.28;457387;112;930728;-70
2021/05/25 03:33:05;;;;;;;6.93;3.88;;;;;;;15.66;74.77;101152.05;466167;111;922503;-71
2021/05/25 03:34:09;;;;;;;4.09;3.49;;;;;;;15.67;74.80;101148.23;465748;112;930527;-71
2021/05/25 03:35:16;;;;;;;3.56;3.26;;;;;;;15.70;74.80;101151.38;466435;112;922589;-71
2021/05/25 03:36:21;;;;;;;3.70;3.16;;;;;;;15.72;74.78;101154.70;464832;112;930493;-70
2021/05/25 03:37:24;;;;;;;3.32;3.03;;;;;;;15.73;74.76;101153.64;466224;111;922703;-70
2021/05/25 03:38:28;;;;;;;3.61;3.30;;;;;;;15.76;74.82;101144.94;465590;112;931015;-72
2021/05/25 03:39:31;;;;;;;4.23;3.85;;;;;;;15.80;74.91;101146.14;466352;112;930597;-70
2021/05/25 03:40:37;;;;;;;4.19;3.79;;;;;;;15.83;75.01;101142.90;465445;111;923372;-69
2021/05/25 03:41:41;;;;;;;3.66;3.35;;;;;;;15.88;74.90;101150.44;466549;111;922980;-73
2021/05/25 03:42:46;;;;;;;2.99;2.64;;;;;;;15.93;74.83;101149.76;466168;112;930757;-71
2021/05/25 03:43:50;;;;;;;3.27;2.99;;;;;;;15.96;74.29;101152.86;466298;112;923144;-69
2021/05/25 03:44:55;;;;;;;3.08;2.85;;;;;;;15.98;74.18;101153.47;466758;112;923559;-69
2021/05/25 03:46:01;;;;;;;3.10;2.89;;;;;;;15.99;74.24;101157.06;467378;111;923130;-71
2021/05/25 03:47:05;;;;;;;2.87;2.59;;;;;;;15.99;74.27;101149.63;465135;111;924290;-72
2021/05/25 03:48:09;;;;;;;3.29;2.99;;;;;;;16.04;74.16;101154.44;466965;112;923002;-75
2021/05/25 03:49:13;;;;;;;3.06;2.81;;;;;;;16.05;74.15;101148.67;465349;112;926514;-73
2021/05/25 03:50:19;;;;;;;2.70;2.50;;;;;;;16.08;74.24;101152.88;466836;111;922845;-70
2021/05/25 03:51:23;;;;;;;3.20;2.41;;;;;;;16.11;74.15;101149.64;466163;112;923844;-74
2021/05/25 03:52:27;;;;;;;3.82;2.58;;;;;;;16.13;73.86;101144.75;465975;111;923895;-71
2021/05/25 03:53:31;;;;;;;2.72;2.52;;;;;;;16.15;73.80;101145.37;465447;111;925036;-73
2021/05/25 03:54:39;;;;;;;5.44;2.82;;;;;;;16.17;73.83;101152.29;466465;111;925174;-70
2021/05/25 03:56:04;;;;;;;2.86;2.45;;;;;;;16.20;73.87;101145.48;466540;111;924105;-72
2021/05/25 03:57:08;;;;;;;4.09;2.58;;;;;;;16.25;73.89;101146.45;464495;112;924089;-73
2021/05/25 03:59:27;;;;;;;2.45;2.25;;;;;;;16.34;73.87;101143.32;466203;112;924003;-70
2021/05/25 04:00:32;;;;;;;4.38;2.75;;;;;;;16.39;73.83;101148.95;466402;112;922996;-71
2021/05/25 04:01:36;;;;;;;2.80;2.59;;;;;;;16.44;73.79;101146.31;465654;112;924206;-70
2021/05/25 04:02:39;;;;;;;2.81;2.48;;;;;;;16.50;73.77;101148.11;466054;111;932886;-70
2021/05/25 04:03:43;;;;;;;2.76;2.38;;;;;;;16.54;73.75;101147.38;465553;111;924126;-71
2021/05/25 04:04:48;;;;;;;2.95;2.36;;;;;;;16.60;73.69;101145.61;466369;112;922534;-71
2021/05/25 04:05:52;;;;;;;7.35;2.97;;;;;;;16.64;73.68;101149.58;465797;112;922449;-71
2021/05/25 04:06:57;;;;;;;3.04;2.37;;;;;;;16.68;73.56;101148.85;466388;112;922917;-71
2021/05/25 04:08:02;;;;;;;2.19;2.00;;;;;;;16.72;73.17;101151.11;465812;111;923948;-71
2021/05/25 04:09:08;;;;;;;3.78;2.58;;;;;;;16.73;73.10;101148.13;457457;112;923997;-72
2021/05/25 04:10:12;;;;;;;2.30;1.91;;;;;;;16.75;73.24;101151.48;460583;112;924965;-71
2021/05/25 04:11:17;;;;;;;2.62;2.29;;;;;;;16.75;73.14;101156.99;466185;112;923947;-69
2021/05/25 04:12:21;;;;;;;3.62;2.33;;;;;;;16.75;73.02;101161.66;465468;111;927400;-72
2021/05/25 04:13:25;;;;;;;2.19;2.06;;;;;;;16.76;73.11;101166.91;457214;114;924049;-70
2021/05/25 04:14:29;;;;;;;2.01;1.70;;;;;;;16.78;73.19;101166.67;459633;112;930296;-72
2021/05/25 04:15:38;;;;;;;1.79;1.65;;;;;;;16.81;72.88;101172.55;466440;111;924503;-70
2021/05/25 04:16:42;;;;;;;2.06;1.82;;;;;;;16.82;71.94;101165.10;466242;112;930456;-71
2021/05/25 04:17:46;;;;;;;4.81;1.76;;;;;;;16.77;71.98;101165.83;465854;112;922926;-72
2021/05/25 04:18:49;;;;;;;2.71;1.67;;;;;;;16.73;72.14;101164.65;466586;112;923165;-73
2021/05/25 04:19:53;;;;;;;3.02;2.04;;;;;;;16.73;72.34;101161.89;466469;111;923064;-70
2021/05/25 04:20:58;;;;;;;1.88;1.49;;;;;;;16.75;72.35;101168.02;466501;111;922997;-74
2021/05/25 04:22:01;;;;;;;2.65;1.59;;;;;;;16.77;72.34;101168.58;456299;114;923179;-71
2021/05/25 04:23:05;;;;;;;3.71;2.25;;;;;;;16.78;72.22;101170.27;456151;114;924139;-71
2021/05/25 04:24:14;;;;;;;1.82;1.67;;;;;;;16.79;72.30;101171.95;465703;112;930483;-71
2021/05/25 04:25:22;;;;;;;2.63;1.86;;;;;;;16.80;72.39;101178.30;465999;112;924060;-72
2021/05/25 04:26:27;;;;;;;3.07;2.36;;;;;;;16.80;72.40;101178.30;465807;112;923942;-70
2021/05/25 04:27:31;;;;;;;2.84;1.75;;;;;;;16.79;72.41;101176.61;466418;112;922564;-72
2021/05/25 04:28:36;;;;;;;2.31;1.48;;;;;;;16.80;72.43;101187.40;466323;111;924519;-72
2021/05/25 04:29:40;;;;;;;1.69;1.43;;;;;;;16.81;72.55;101189.08;466768;111;923333;-71
2021/05/25 04:30:45;;;;;;;4.67;1.69;;;;;;;16.81;72.07;101191.83;465932;112;922857;-73
2021/05/25 04:31:49;;;;;;;2.41;1.86;;;;;;;16.80;71.78;101192.91;466065;112;925814;-72
2021/05/25 04:32:53;;;;;;;1.89;1.60;;;;;;;16.77;71.94;101196.13;466024;112;926664;-70
2021/05/25 04:33:57;;;;;;;2.42;1.58;;;;;;;16.76;72.21;101204.65;465931;111;930272;-72
2021/05/25 04:35:02;;;;;;;3.22;2.16;;;;;;;16.75;72.23;101202.97;467183;112;931857;-72
2021/05/25 04:36:06;;;;;;;3.68;2.01;;;;;;;16.77;72.56;101209.05;467032;111;922325;-70
2021/05/25 04:37:10;;;;;;;3.04;1.84;;;;;;;16.79;72.59;101207.75;466148;112;925295;-71
2021/05/25 04:38:15;;;;;;;3.55;1.56;;;;;;;16.82;72.74;101209.17;465291;111;932606;-70
2021/05/25 04:39:19;;;;;;;2.79;1.80;;;;;;;16.82;72.29;101215.52;466757;111;933413;-74
2021/05/25 04:40:25;;;;;;;3.25;1.97;;;;;;;16.79;71.96;101209.66;466179;112;931956;-70
2021/05/25 04:41:29;;;;;;;2.64;1.81;;;;;;;16.72;72.22;101215.29;465575;111;925931;-71
2021/05/25 04:42:33;;;;;;;2.44;1.70;;;;;;;16.65;72.33;101215.41;465854;111;925218;-69
2021/05/25 04:43:37;;;;;;;2.52;1.94;;;;;;;16.63;72.34;101219.48;465504;112;930234;-70
2021/05/25 04:44:41;;;;;;;2.12;1.81;;;;;;;16.59;72.37;101223.81;465773;112;924027;-72
2021/05/25 04:45:46;;;;;;;2.49;1.98;;;;;;;16.56;72.60;101211.31;465771;111;930250;-70
2021/05/25 04:46:50;;;;;;;3.64;2.19;;;;;;;16.56;72.63;101219.57;465608;111;930375;-71
2021/05/25 04:47:54;;;;;;;2.59;1.57;;;;;;;16.58;72.60;101220.18;465848;112;922508;-71
2021/05/25 04:48:58;;;;;;;2.61;2.04;;;;;;;16.58;72.78;101209.17;465890;111;922896;-72
2021/05/25 04:50:05;;;;;;;2.46;2.11;;;;;;;16.60;72.73;101209.78;466058;111;922477;-72
2021/05/25 04:51:09;;;;;;;2.44;2.14;;;;;;;16.62;72.83;101210.39;465634;112;922608;-72
2021/05/25 04:52:23;;;;;;;2.16;1.85;;;;;;;16.66;72.94;101210.73;456798;114;924816;-71
2021/05/25 04:53:32;;;;;;;2.34;1.99;;;;;;;16.69;72.84;101213.03;459262;112;923325;-72
2021/05/25 04:54:38;;;;;;;2.22;1.84;;;;;;;16.72;72.81;101212.53;466341;111;923016;-71
2021/05/25 04:55:42;;;;;;;2.72;2.32;;;;;;;16.77;72.68;101211.81;466090;112;924058;-70
2021/05/25 04:56:47;;;;;;;2.60;1.88;;;;;;;16.81;72.74;101213.87;466568;112;931006;-73
2021/05/25 04:57:52;;;;;;;3.64;2.06;;;;;;;16.87;72.71;101223.09;466743;111;922523;-74
2021/05/25 04:58:55;;;;;;;2.73;2.14;;;;;;;16.91;72.68;101222.36;467018;111;923050;-71
2021/05/25 04:59:59;;;;;;;3.37;2.11;;;;;;;16.96;72.66;101222.47;465638;112;922825;-70